createdAt,value
2019-03-30T00:01:25.989Z,18.35
2019-03-30T00:03:54.466Z,19.27
2019-03-30T00:06:22.963Z,18.48
2019-03-30T00:08:51.434Z,18.67
2019-03-30T00:11:19.897Z,17.32
2019-03-30T00:13:48.659Z,18.55
2019-03-30T00:16:17.075Z,16.30
2019-03-30T00:18:45.955Z,17.40
2019-03-30T00:21:14.449Z,17.02
2019-03-30T00:23:42.869Z,16.57
2019-03-30T00:26:11.399Z,16.48
2019-03-30T00:28:39.831Z,15.90
2019-03-30T00:31:08.291Z,15.78
2019-03-30T00:33:36.777Z,17.20
2019-03-30T00:36:05.386Z,16.35
2019-03-30T00:38:33.946Z,17.05
2019-03-30T00:41:02.481Z,16.67
2019-03-30T00:43:30.940Z,15.93
2019-03-30T00:45:59.400Z,15.63
2019-03-30T00:48:27.917Z,17.77
2019-03-30T00:50:56.417Z,16.77
2019-03-30T00:53:24.914Z,14.83
2019-03-30T00:55:53.422Z,17.42
2019-03-30T00:58:21.871Z,16.62
2019-03-30T01:00:50.437Z,17.82
2019-03-30T01:03:18.871Z,16.42
2019-03-30T01:05:47.322Z,17.37
2019-03-30T01:08:15.875Z,15.25
2019-03-30T01:10:44.336Z,15.80
2019-03-30T01:13:12.829Z,15.75
2019-03-30T01:15:41.287Z,16.05
2019-03-30T01:18:09.782Z,16.05
2019-03-30T01:20:38.208Z,17.95
2019-03-30T01:23:06.680Z,17.55
2019-03-30T01:25:35.186Z,16.67
2019-03-30T01:28:03.720Z,15.83
2019-03-30T01:30:32.140Z,17.00
2019-03-30T01:33:00.563Z,16.48
2019-03-30T01:35:29.233Z,17.37
2019-03-30T01:37:57.848Z,17.48
2019-03-30T01:40:26.272Z,17.65
2019-03-30T01:42:54.692Z,17.85
2019-03-30T01:45:23.334Z,16.27
2019-03-30T01:47:51.769Z,16.10
2019-03-30T01:50:20.584Z,15.95
2019-03-30T01:52:49.078Z,16.00
2019-03-30T01:55:17.562Z,17.98
2019-03-30T01:57:46.008Z,17.45
2019-03-30T02:00:15.775Z,17.32
2019-03-30T02:02:44.426Z,16.77
2019-03-30T02:05:12.942Z,16.75
2019-03-30T02:07:41.373Z,17.00
2019-03-30T02:10:11.269Z,18.10
2019-03-30T02:12:39.926Z,17.77
2019-03-30T02:15:10.147Z,16.55
2019-03-30T02:17:38.590Z,18.07
2019-03-30T02:20:07.990Z,17.30
2019-03-30T02:22:36.516Z,18.07
2019-03-30T02:25:07.138Z,16.77
2019-03-30T02:27:35.668Z,17.77
2019-03-30T02:30:06.554Z,16.50
2019-03-30T02:32:34.997Z,17.45
2019-03-30T02:35:04.589Z,16.60
2019-03-30T02:37:33.044Z,18.23
2019-03-30T02:40:01.467Z,18.30
2019-03-30T02:42:29.960Z,16.30
2019-03-30T02:44:58.434Z,16.50
2019-03-30T02:47:26.932Z,15.93
2019-03-30T02:49:55.412Z,15.90
2019-03-30T02:52:23.805Z,16.57
2019-03-30T02:54:52.228Z,15.05
2019-03-30T02:57:20.673Z,15.68
2019-03-30T02:59:49.124Z,16.80
2019-03-30T03:02:17.540Z,17.40
2019-03-30T03:04:46.033Z,15.95
2019-03-30T03:07:14.562Z,16.50
2019-03-30T03:09:42.982Z,17.00
2019-03-30T03:12:11.499Z,14.58
2019-03-30T03:14:39.921Z,16.15
2019-03-30T03:17:08.375Z,16.35
2019-03-30T03:19:36.789Z,15.68
2019-03-30T03:22:05.237Z,15.15
2019-03-30T03:24:33.781Z,16.00
2019-03-30T03:27:02.273Z,14.40
2019-03-30T03:29:30.736Z,14.98
2019-03-30T03:31:59.274Z,15.60
2019-03-30T03:34:27.784Z,15.63
2019-03-30T03:36:56.206Z,15.70
2019-03-30T03:39:24.662Z,14.85
2019-03-30T03:41:53.153Z,15.40
2019-03-30T03:44:21.685Z,15.78
2019-03-30T03:46:50.108Z,16.70
2019-03-30T03:49:18.531Z,14.68
2019-03-30T03:51:47.048Z,15.05
2019-03-30T03:54:16.005Z,13.55
2019-03-30T03:56:47.771Z,14.05
2019-03-30T03:59:17.282Z,13.20
2019-03-30T04:01:47.624Z,13.90
2019-03-30T04:04:18.213Z,14.25
2019-03-30T04:06:49.744Z,13.68
2019-03-30T04:09:19.894Z,13.70
2019-03-30T04:11:49.793Z,12.63
2019-03-30T04:14:20.734Z,14.85
2019-03-30T04:16:49.328Z,13.70
2019-03-30T04:19:17.770Z,14.65
2019-03-30T04:21:46.223Z,15.03
2019-03-30T04:24:14.645Z,14.43
2019-03-30T04:26:43.060Z,15.70
2019-03-30T04:29:11.603Z,13.55
2019-03-30T04:31:40.143Z,13.05
2019-03-30T04:34:08.579Z,14.13
2019-03-30T04:36:36.993Z,14.03
2019-03-30T04:39:06.205Z,13.55
2019-03-30T04:41:34.652Z,14.38
2019-03-30T04:44:03.141Z,13.85
2019-03-30T04:46:31.558Z,15.20
2019-03-30T04:48:59.983Z,13.88
2019-03-30T04:51:28.450Z,13.80
2019-03-30T04:53:56.874Z,12.98
2019-03-30T04:56:25.335Z,13.62
2019-03-30T04:58:53.792Z,12.63
2019-03-30T05:01:22.237Z,14.83
2019-03-30T05:03:50.720Z,14.00
2019-03-30T05:06:19.140Z,13.72
2019-03-30T05:08:47.574Z,13.18
2019-03-30T05:11:16.030Z,13.05
2019-03-30T05:13:44.485Z,12.65
2019-03-30T05:16:13.026Z,12.05
2019-03-30T05:18:41.480Z,12.20
2019-03-30T05:21:09.893Z,14.33
2019-03-30T05:23:38.308Z,13.60
2019-03-30T05:26:06.779Z,12.53
2019-03-30T05:28:35.186Z,14.10
2019-03-30T05:31:03.649Z,14.30
2019-03-30T05:33:32.073Z,13.65
2019-03-30T05:36:00.621Z,13.75
2019-03-30T05:38:29.072Z,13.65
2019-03-30T05:40:57.488Z,13.98
2019-03-30T05:43:25.938Z,13.93
2019-03-30T05:45:54.370Z,15.00
2019-03-30T05:48:22.829Z,14.78
2019-03-30T05:50:51.244Z,13.78
2019-03-30T05:53:19.698Z,13.05
2019-03-30T05:55:48.214Z,13.90
2019-03-30T05:58:16.644Z,13.50
2019-03-30T06:00:45.093Z,15.20
2019-03-30T06:03:13.535Z,13.72
2019-03-30T06:05:42.015Z,14.10
2019-03-30T06:08:10.439Z,12.73
2019-03-30T06:10:39.120Z,13.55
2019-03-30T06:13:07.718Z,13.85
2019-03-30T06:15:37.117Z,14.53
2019-03-30T06:18:05.582Z,13.60
2019-03-30T06:20:33.995Z,15.10
2019-03-30T06:23:02.447Z,15.30
2019-03-30T06:25:30.978Z,14.85
2019-03-30T06:27:59.445Z,15.45
2019-03-30T06:30:28.509Z,14.98
2019-03-30T06:32:56.953Z,15.63
2019-03-30T06:35:25.383Z,15.40
2019-03-30T06:37:53.884Z,15.32
2019-03-30T06:40:22.568Z,15.30
2019-03-30T06:42:51.007Z,15.20
2019-03-30T06:45:19.624Z,14.28
2019-03-30T06:47:48.046Z,13.72
2019-03-30T06:50:18.204Z,14.28
2019-03-30T06:52:57.506Z,14.03
2019-03-30T06:55:17.142Z,15.30
2019-03-30T06:57:45.671Z,15.25
2019-03-30T07:00:14.645Z,14.87
2019-03-30T07:02:43.425Z,14.40
2019-03-30T07:05:11.968Z,14.35
2019-03-30T07:07:42.122Z,13.68
2019-03-30T07:10:10.873Z,15.05
2019-03-30T07:12:41.042Z,13.15
2019-03-30T07:15:10.279Z,13.75
2019-03-30T07:17:41.789Z,13.60
2019-03-30T07:20:13.277Z,14.07
2019-03-30T07:22:41.704Z,14.47
2019-03-30T07:25:10.298Z,15.08
2019-03-30T07:27:38.716Z,13.18
2019-03-30T07:30:09.294Z,13.32
2019-03-30T07:32:37.720Z,12.80
2019-03-30T07:35:06.918Z,11.93
2019-03-30T07:37:35.375Z,12.20
2019-03-30T07:40:06.428Z,12.28
2019-03-30T07:42:34.858Z,12.63
2019-03-30T07:45:04.670Z,12.82
2019-03-30T07:47:33.088Z,13.95
2019-03-30T07:50:01.618Z,13.25
2019-03-30T07:52:30.114Z,12.68
2019-03-30T07:54:58.541Z,13.25
2019-03-30T07:57:26.970Z,14.00
2019-03-30T07:59:55.458Z,13.53
2019-03-30T08:02:23.979Z,13.70
2019-03-30T08:04:52.434Z,13.45
2019-03-30T08:07:20.951Z,12.73
2019-03-30T08:09:49.406Z,13.90
2019-03-30T08:12:17.937Z,13.55
2019-03-30T08:14:46.467Z,14.95
2019-03-30T08:17:14.991Z,14.78
2019-03-30T08:19:43.453Z,13.78
2019-03-30T08:22:11.938Z,14.68
2019-03-30T08:24:40.364Z,14.25
2019-03-30T08:27:08.813Z,13.98
2019-03-30T08:29:37.354Z,14.05
2019-03-30T08:32:05.967Z,14.87
2019-03-30T08:34:34.582Z,13.03
2019-03-30T08:37:03.008Z,13.40
2019-03-30T08:39:31.476Z,14.98
2019-03-30T08:41:59.905Z,13.30
2019-03-30T08:44:28.340Z,14.38
2019-03-30T08:46:56.847Z,13.68
2019-03-30T08:49:25.298Z,14.78
2019-03-30T08:51:53.749Z,14.60
2019-03-30T08:54:22.207Z,13.15
2019-03-30T08:56:50.732Z,13.62
2019-03-30T08:59:19.224Z,12.85
2019-03-30T09:01:47.679Z,13.35
2019-03-30T09:04:16.125Z,12.55
2019-03-30T09:06:44.844Z,12.23
2019-03-30T09:09:13.433Z,11.45
2019-03-30T09:11:43.580Z,10.68
2019-03-30T09:14:12.051Z,11.70
2019-03-30T09:16:41.473Z,11.78
2019-03-30T09:19:09.935Z,11.68
2019-03-30T09:21:38.367Z,10.48
2019-03-30T09:24:09.866Z,9.20
2019-03-30T09:26:37.069Z,9.70
2019-03-30T09:29:05.569Z,10.30
2019-03-30T09:31:34.333Z,9.75
2019-03-30T09:34:02.764Z,8.40
2019-03-30T09:36:31.237Z,9.08
2019-03-30T09:38:59.658Z,8.30
2019-03-30T09:41:28.247Z,9.00
2019-03-30T09:43:56.705Z,7.20
2019-03-30T09:46:25.160Z,8.78
2019-03-30T09:48:53.574Z,8.70
2019-03-30T09:51:22.076Z,8.13
2019-03-30T09:53:50.609Z,8.95
2019-03-30T09:56:19.036Z,5.97
2019-03-30T09:58:47.553Z,4.70
2019-03-30T10:01:16.064Z,6.72
2019-03-30T10:03:44.583Z,7.05
2019-03-30T10:06:13.130Z,6.33
2019-03-30T10:08:41.580Z,6.00
2019-03-30T10:11:10.069Z,6.58
2019-03-30T10:13:38.523Z,6.35
2019-03-30T10:16:06.938Z,6.00
2019-03-30T10:18:35.380Z,5.85
2019-03-30T10:21:03.919Z,6.53
2019-03-30T10:23:32.331Z,6.62
2019-03-30T10:26:01.121Z,5.67
2019-03-30T10:28:29.534Z,5.70
2019-03-30T10:30:58.033Z,5.70
2019-03-30T10:33:26.431Z,5.58
2019-03-30T10:35:54.875Z,5.25
2019-03-30T10:38:23.318Z,5.12
2019-03-30T10:40:51.774Z,6.05
2019-03-30T10:43:20.193Z,5.85
2019-03-30T10:45:48.641Z,5.47
2019-03-30T10:48:17.082Z,5.30
2019-03-30T10:50:45.558Z,6.20
2019-03-30T10:53:14.009Z,5.25
2019-03-30T10:55:42.427Z,5.80
2019-03-30T10:58:10.943Z,4.90
2019-03-30T11:00:40.650Z,4.47
2019-03-30T11:03:09.222Z,5.22
2019-03-30T11:05:37.748Z,4.70
2019-03-30T11:08:06.367Z,4.50
2019-03-30T11:10:34.933Z,5.50
2019-03-30T11:13:03.460Z,5.53
2019-03-30T11:15:34.104Z,5.00
2019-03-30T11:18:02.297Z,4.33
2019-03-30T11:20:30.963Z,5.45
2019-03-30T11:22:59.457Z,21.85
2019-03-30T11:25:28.003Z,5.10
2019-03-30T11:27:56.418Z,4.60
2019-03-30T11:30:24.981Z,6.33
2019-03-30T11:32:53.529Z,43.50
2019-03-30T11:35:22.036Z,39.90
2019-03-30T11:37:51.314Z,5.85
2019-03-30T11:40:19.840Z,8.75
2019-03-30T11:42:48.248Z,5.50
2019-03-30T11:45:16.876Z,5.72
2019-03-30T11:47:45.308Z,5.70
2019-03-30T11:50:14.129Z,5.50
2019-03-30T11:52:42.565Z,5.25
2019-03-30T11:55:21.838Z,4.95
2019-03-30T11:57:41.447Z,5.55
2019-03-30T12:00:10.495Z,9.50
2019-03-30T12:02:39.072Z,8.03
2019-03-30T12:05:08.735Z,5.10
2019-03-30T12:07:37.830Z,6.75
2019-03-30T12:10:09.166Z,8.60
2019-03-30T12:12:37.791Z,5.80
2019-03-30T12:15:07.491Z,5.95
2019-03-30T12:17:35.921Z,15.30
2019-03-30T12:20:06.663Z,5.70
2019-03-30T12:22:35.088Z,10.75
2019-03-30T12:25:03.697Z,9.33
2019-03-30T12:27:32.211Z,8.73
2019-03-30T12:30:00.764Z,7.33
2019-03-30T12:32:29.192Z,14.23
2019-03-30T12:34:57.764Z,13.03
2019-03-30T12:37:26.285Z,9.28
2019-03-30T12:39:58.060Z,6.28
2019-03-30T12:42:25.047Z,6.00
2019-03-30T12:44:53.487Z,6.40
2019-03-30T12:47:22.007Z,6.65
2019-03-30T12:49:50.437Z,6.80
2019-03-30T12:52:18.875Z,6.70
2019-03-30T12:54:47.297Z,6.28
2019-03-30T12:57:15.792Z,6.33
2019-03-30T12:59:44.220Z,6.17
2019-03-30T13:02:12.703Z,5.95
2019-03-30T13:04:41.154Z,5.47
2019-03-30T13:07:09.587Z,5.45
2019-03-30T13:09:38.031Z,6.30
2019-03-30T13:12:06.480Z,5.70
2019-03-30T13:14:34.900Z,6.60
2019-03-30T13:17:03.359Z,5.95
2019-03-30T13:19:31.793Z,5.72
2019-03-30T13:22:00.215Z,6.30
2019-03-30T13:24:28.667Z,6.03
2019-03-30T13:26:57.128Z,6.17
2019-03-30T13:29:25.616Z,6.50
2019-03-30T13:31:54.026Z,6.12
2019-03-30T13:34:22.557Z,6.37
2019-03-30T13:36:50.977Z,5.75
2019-03-30T13:39:19.403Z,6.45
2019-03-30T13:41:47.937Z,5.83
2019-03-30T13:44:16.422Z,5.83
2019-03-30T13:46:44.842Z,6.30
2019-03-30T13:49:13.289Z,6.87
2019-03-30T13:51:41.709Z,6.37
2019-03-30T13:54:10.383Z,6.00
2019-03-30T13:56:38.981Z,6.28
2019-03-30T13:59:07.440Z,5.80
2019-03-30T14:01:35.941Z,5.58
2019-03-30T14:04:04.510Z,6.62
2019-03-30T14:06:33.022Z,5.40
2019-03-30T14:09:01.507Z,7.12
2019-03-30T14:11:29.996Z,6.85
2019-03-30T14:13:58.411Z,7.00
2019-03-30T14:16:26.841Z,6.33
2019-03-30T14:18:55.298Z,6.50
2019-03-30T14:21:23.726Z,6.10
2019-03-30T14:23:52.188Z,6.20
2019-03-30T14:26:30.785Z,6.33
2019-03-30T14:28:50.776Z,7.10
2019-03-30T14:31:19.219Z,6.20
2019-03-30T14:33:47.686Z,6.10
2019-03-30T14:36:16.150Z,6.47
2019-03-30T14:38:44.593Z,6.70
2019-03-30T14:41:13.143Z,6.25
2019-03-30T14:43:41.595Z,5.85
2019-03-30T14:46:10.040Z,6.37
2019-03-30T14:48:38.457Z,6.03
2019-03-30T14:51:06.950Z,7.30
2019-03-30T14:53:35.539Z,7.03
2019-03-30T14:56:04.125Z,6.70
2019-03-30T14:58:32.637Z,6.33
2019-03-30T15:01:03.195Z,6.35
2019-03-30T15:03:31.310Z,6.45
2019-03-30T15:05:59.753Z,5.92
2019-03-30T15:08:28.197Z,7.28
2019-03-30T15:10:56.818Z,6.40
2019-03-30T15:13:25.241Z,6.53
2019-03-30T15:15:53.767Z,5.92
2019-03-30T15:18:22.382Z,5.92
2019-03-30T15:20:50.832Z,6.28
2019-03-30T15:23:19.363Z,6.70
2019-03-30T15:25:48.188Z,5.80
2019-03-30T15:28:16.610Z,6.80
2019-03-30T15:30:45.040Z,6.35
2019-03-30T15:33:13.490Z,6.20
2019-03-30T15:35:41.908Z,5.67
2019-03-30T15:38:10.361Z,6.55
2019-03-30T15:40:38.790Z,7.37
2019-03-30T15:43:07.288Z,5.87
2019-03-30T15:45:35.749Z,6.10
2019-03-30T15:48:04.292Z,6.67
2019-03-30T15:50:32.734Z,5.72
2019-03-30T15:53:01.207Z,6.22
2019-03-30T15:55:29.640Z,6.00
2019-03-30T15:57:58.205Z,6.85
2019-03-30T16:00:26.664Z,6.15
2019-03-30T16:02:55.254Z,7.83
2019-03-30T16:05:23.772Z,6.75
2019-03-30T16:07:52.331Z,6.67
2019-03-30T16:10:21.055Z,6.60
2019-03-30T16:12:49.534Z,6.70
2019-03-30T16:15:18.031Z,6.37
2019-03-30T16:17:46.484Z,6.75
2019-03-30T16:20:15.659Z,6.30
2019-03-30T16:22:44.890Z,6.53
2019-03-30T16:25:13.261Z,6.72
2019-03-30T16:27:41.878Z,6.87
2019-03-30T16:30:11.297Z,5.65
2019-03-30T16:32:39.819Z,6.08
2019-03-30T16:35:09.529Z,5.75
2019-03-30T16:37:38.048Z,5.97
2019-03-30T16:40:07.332Z,6.47
2019-03-30T16:42:36.355Z,7.85
2019-03-30T16:45:06.410Z,5.95
2019-03-30T16:47:34.869Z,6.50
2019-03-30T16:50:03.668Z,6.08
2019-03-30T16:52:32.154Z,6.90
2019-03-30T16:55:00.657Z,6.50
2019-03-30T16:57:42.629Z,6.45
2019-03-30T16:59:59.414Z,6.50
2019-03-30T17:02:27.843Z,5.80
2019-03-30T17:04:56.551Z,5.90
2019-03-30T17:07:24.978Z,6.35
2019-03-30T17:09:53.415Z,13.25
2019-03-30T17:12:21.891Z,8.93
2019-03-30T17:14:50.612Z,9.13
2019-03-30T17:17:19.037Z,7.90
2019-03-30T17:19:47.484Z,8.58
2019-03-30T17:22:15.917Z,7.80
2019-03-30T17:24:44.378Z,7.00
2019-03-30T17:27:12.871Z,6.90
2019-03-30T17:29:41.294Z,6.80
2019-03-30T17:32:09.839Z,6.25
2019-03-30T17:34:38.363Z,5.90
2019-03-30T17:37:06.924Z,6.33
2019-03-30T17:39:35.445Z,5.80
2019-03-30T17:42:04.008Z,5.85
2019-03-30T17:44:32.713Z,5.80
2019-03-30T17:47:01.165Z,6.33
2019-03-30T17:49:29.590Z,6.25
2019-03-30T17:51:58.023Z,7.97
2019-03-30T17:54:26.475Z,8.68
2019-03-30T17:56:54.940Z,19.52
2019-03-30T17:59:23.948Z,10.85
2019-03-30T18:01:52.594Z,18.37
2019-03-30T18:04:21.062Z,44.93
2019-03-30T18:06:49.639Z,16.95
2019-03-30T18:09:18.082Z,32.10
2019-03-30T18:11:46.596Z,23.87
2019-03-30T18:14:15.056Z,17.87
2019-03-30T18:16:43.575Z,11.10
2019-03-30T18:19:12.088Z,13.05
2019-03-30T18:21:40.615Z,16.20
2019-03-30T18:24:09.038Z,10.88
2019-03-30T18:26:37.555Z,7.85
2019-03-30T18:29:06.089Z,7.70
2019-03-30T18:31:34.933Z,9.60
2019-03-30T18:34:03.512Z,6.03
2019-03-30T18:36:33.706Z,6.25
2019-03-30T18:39:09.836Z,6.45
2019-03-30T18:41:33.923Z,7.00
2019-03-30T18:44:02.890Z,5.90
2019-03-30T18:46:31.440Z,6.08
2019-03-30T18:49:00.038Z,7.95
2019-03-30T18:51:28.705Z,29.25
2019-03-30T18:53:57.466Z,13.45
2019-03-30T18:56:27.958Z,9.55
2019-03-30T18:58:56.063Z,16.25
2019-03-30T19:01:24.521Z,17.80
2019-03-30T19:03:52.944Z,32.58
2019-03-30T19:06:21.491Z,12.03
2019-03-30T19:08:49.970Z,9.03
2019-03-30T19:11:18.502Z,9.58
2019-03-30T19:13:47.078Z,9.08
2019-03-30T19:16:15.802Z,24.82
2019-03-30T19:18:44.296Z,15.28
2019-03-30T19:21:12.867Z,12.30
2019-03-30T19:23:41.379Z,25.02
2019-03-30T19:26:09.859Z,20.52
2019-03-30T19:28:38.295Z,18.12
2019-03-30T19:31:06.798Z,12.07
2019-03-30T19:33:35.282Z,12.80
2019-03-30T19:36:03.839Z,11.97
2019-03-30T19:38:32.311Z,12.10
2019-03-30T19:41:01.600Z,42.38
2019-03-30T19:43:30.029Z,18.67
2019-03-30T19:45:58.454Z,13.62
2019-03-30T19:48:26.919Z,10.40
2019-03-30T19:50:55.405Z,9.40
2019-03-30T19:53:23.842Z,9.20
2019-03-30T19:55:52.464Z,9.95
2019-03-30T19:58:21.022Z,11.57
2019-03-30T20:00:49.705Z,11.43
2019-03-30T20:03:18.154Z,10.32
2019-03-30T20:05:46.645Z,14.10
2019-03-30T20:08:15.097Z,10.90
2019-03-30T20:10:43.539Z,17.00
2019-03-30T20:13:12.083Z,12.18
2019-03-30T20:15:40.681Z,10.68
2019-03-30T20:18:09.257Z,11.78
2019-03-30T20:20:37.717Z,12.10
2019-03-30T20:23:06.254Z,11.33
2019-03-30T20:25:34.713Z,10.98
2019-03-30T20:28:03.182Z,11.73
2019-03-30T20:30:31.774Z,10.98
2019-03-30T20:33:00.282Z,11.65
2019-03-30T20:35:28.732Z,11.43
2019-03-30T20:37:57.266Z,11.85
2019-03-30T20:40:25.983Z,12.00
2019-03-30T20:42:54.404Z,15.32
2019-03-30T20:45:22.851Z,11.50
2019-03-30T20:47:51.310Z,13.65
2019-03-30T20:50:19.813Z,12.10
2019-03-30T20:52:48.297Z,11.33
2019-03-30T20:55:16.787Z,19.87
2019-03-30T20:57:45.253Z,19.27
2019-03-30T21:00:14.696Z,17.27
2019-03-30T21:02:43.188Z,14.00
2019-03-30T21:05:12.006Z,12.82
2019-03-30T21:07:41.920Z,15.80
2019-03-30T21:10:11.625Z,12.85
2019-03-30T21:12:40.094Z,18.75
2019-03-30T21:15:08.685Z,23.18
2019-03-30T21:17:37.123Z,21.15
2019-03-30T21:20:08.857Z,16.12
2019-03-30T21:22:37.638Z,15.25
2019-03-30T21:25:06.616Z,13.65
2019-03-30T21:27:35.091Z,15.55
2019-03-30T21:30:05.621Z,14.03
2019-03-30T21:32:34.065Z,13.20
2019-03-30T21:35:02.698Z,13.38
2019-03-30T21:37:31.120Z,12.45
2019-03-30T21:39:59.556Z,13.72
2019-03-30T21:42:28.031Z,14.05
2019-03-30T21:44:56.447Z,14.47
2019-03-30T21:47:24.897Z,13.93
2019-03-30T21:49:53.373Z,13.05
2019-03-30T21:52:21.795Z,14.23
2019-03-30T21:54:50.254Z,13.95
2019-03-30T21:57:18.758Z,14.83
2019-03-30T21:59:47.281Z,26.87
2019-03-30T22:02:15.743Z,27.58
2019-03-30T22:04:44.262Z,14.65
2019-03-30T22:07:12.931Z,11.57
2019-03-30T22:09:41.497Z,13.28
2019-03-30T22:12:09.923Z,12.25
2019-03-30T22:14:38.537Z,12.88
2019-03-30T22:17:06.968Z,11.55
2019-03-30T22:19:35.528Z,12.82
2019-03-30T22:22:04.010Z,13.10
2019-03-30T22:24:32.513Z,12.65
2019-03-30T22:27:01.014Z,11.90
2019-03-30T22:29:29.444Z,11.40
2019-03-30T22:31:58.198Z,12.40
2019-03-30T22:34:26.688Z,12.45
2019-03-30T22:36:55.178Z,13.25
2019-03-30T22:39:23.700Z,12.80
2019-03-30T22:41:52.270Z,12.90
2019-03-30T22:44:20.852Z,12.53
2019-03-30T22:46:49.287Z,13.08
2019-03-30T22:49:17.833Z,11.93
2019-03-30T22:51:46.306Z,12.03
2019-03-30T22:54:14.772Z,12.98
2019-03-30T22:56:43.277Z,12.07
2019-03-30T22:59:11.716Z,12.25
2019-03-30T23:01:40.317Z,11.85
2019-03-30T23:04:08.865Z,12.15
2019-03-30T23:06:37.426Z,12.40
2019-03-30T23:09:06.606Z,13.38
2019-03-30T23:11:35.044Z,12.65
2019-03-30T23:14:03.644Z,12.82
2019-03-30T23:16:32.173Z,11.38
2019-03-30T23:19:00.630Z,12.75
2019-03-30T23:21:29.060Z,12.30
2019-03-30T23:23:57.480Z,12.78
2019-03-30T23:26:26.015Z,12.30
2019-03-30T23:28:54.449Z,12.30
2019-03-30T23:31:23.074Z,11.65
2019-03-30T23:33:51.530Z,12.30
2019-03-30T23:36:20.071Z,11.40
2019-03-30T23:38:48.499Z,13.00
2019-03-30T23:41:16.932Z,12.60
2019-03-30T23:43:45.386Z,12.25
2019-03-30T23:46:13.955Z,11.90
2019-03-30T23:48:42.387Z,11.90
2019-03-30T23:51:10.851Z,12.13
2019-03-30T23:53:39.266Z,10.68
2019-03-30T23:56:19.781Z,12.05
2019-03-30T23:58:48.447Z,11.20
